Time;durP1;ratioP1;P1;durP2;ratioP2;P2;SDS_P1;SDS_P2;PMS_P1;PMS_P2;Temp;Humidity;BMP_temperature;BMP_pressure;BME280_temperature;BME280_humidity;BME280_pressure;Samples;Min_cycle;Max_cycle;Signal;HPM_P1;HPM_P2
2024/01/19 04:53:15;;;;;;;33.67;11.95;;;-1.80;99.90;;;;;;7601353;19;20347;-71
2024/01/19 04:55:48;;;;;;;28.80;13.27;;;-1.90;99.90;;;;;;7604296;19;20034;-71
2024/01/19 04:58:20;;;;;;;31.55;12.93;;;-1.90;99.90;;;;;;7600838;19;20017;-71
2024/01/19 05:00:52;;;;;;;24.75;12.75;;;-1.90;99.90;;;;;;7605567;19;20029;-71
2024/01/19 05:03:25;;;;;;;25.80;12.43;;;-1.80;99.90;;;;;;7605280;19;20018;-71
2024/01/19 05:05:58;;;;;;;34.33;13.37;;;-1.70;99.90;;;;;;7591592;19;20328;-71
2024/01/19 05:08:31;;;;;;;32.25;14.40;;;-1.60;99.90;;;;;;7604138;19;20026;-71
2024/01/19 05:11:03;;;;;;;33.75;13.27;;;-1.60;99.90;;;;;;7600848;19;20018;-71
2024/01/19 05:13:36;;;;;;;26.15;11.90;;;-1.50;99.90;;;;;;7599848;19;20064;-71
2024/01/19 05:16:09;;;;;;;29.75;12.85;;;-1.20;99.90;;;;;;7606548;19;21392;-71
2024/01/19 05:18:41;;;;;;;33.15;11.57;;;-1.00;99.90;;;;;;7565705;19;20547;-71
2024/01/19 05:21:14;;;;;;;24.27;11.43;;;-1.00;99.90;;;;;;7586411;19;20045;-73
2024/01/19 05:23:46;;;;;;;29.08;13.05;;;-1.20;99.90;;;;;;7600478;19;20488;-73
2024/01/19 05:26:18;;;;;;;29.73;13.00;;;-1.30;99.90;;;;;;7576285;19;20018;-73
2024/01/19 05:28:51;;;;;;;27.33;13.05;;;-1.30;99.90;;;;;;7584182;19;20025;-72
2024/01/19 05:31:23;;;;;;;28.38;12.93;;;-1.30;99.90;;;;;;7592691;19;20026;-72
2024/01/19 05:33:56;;;;;;;26.55;12.57;;;-1.40;99.90;;;;;;7604897;19;20082;-72
2024/01/19 05:36:29;;;;;;;31.60;12.97;;;-1.40;99.90;;;;;;7586776;19;20014;-73
2024/01/19 05:39:02;;;;;;;33.50;13.77;;;-1.50;99.90;;;;;;7593773;19;20029;-73
2024/01/19 05:41:34;;;;;;;35.65;14.95;;;-1.50;99.90;;;;;;7584621;19;20047;-73
2024/01/19 05:44:07;;;;;;;32.80;14.30;;;-1.50;99.90;;;;;;7584331;19;20060;-72
2024/01/19 05:46:40;;;;;;;32.05;13.77;;;-1.50;99.90;;;;;;7575844;19;20021;-72
2024/01/19 05:49:12;;;;;;;39.92;15.77;;;-1.50;99.90;;;;;;7604391;19;20022;-72
2024/01/19 05:51:44;;;;;;;40.65;16.88;;;-1.50;99.90;;;;;;7585886;19;20022;-72
2024/01/19 05:54:16;;;;;;;37.75;16.13;;;-1.50;99.90;;;;;;7600596;19;20025;-71
2024/01/19 05:56:49;;;;;;;33.97;15.40;;;-1.50;99.90;;;;;;7557739;19;21235;-73
2024/01/19 05:59:21;;;;;;;33.40;16.27;;;-1.40;99.90;;;;;;7584997;19;20015;-73
2024/01/19 06:01:54;;;;;;;33.67;16.77;;;-1.40;99.90;;;;;;7593165;19;20014;-73
2024/01/19 06:04:27;;;;;;;;;;;-1.40;99.90;;;;;;7514858;19;20011;-71
2024/01/19 06:07:00;;;;;;;32.80;15.38;;;-1.50;99.90;;;;;;7541441;19;19918;-71
2024/01/19 06:09:33;;;;;;;40.65;17.45;;;-1.50;99.90;;;;;;7567283;19;20010;-71
2024/01/19 06:12:06;;;;;;;42.67;17.13;;;-1.50;99.90;;;;;;7562045;19;20065;-71
2024/01/19 06:14:39;;;;;;;40.13;17.25;;;-1.50;99.90;;;;;;7575677;19;20052;-71
2024/01/19 06:17:14;;;;;;;37.50;17.83;;;-1.40;99.90;;;;;;7545373;19;20018;-70
2024/01/19 06:19:47;;;;;;;36.15;15.57;;;-1.40;99.90;;;;;;7551826;19;20275;-71
2024/01/19 06:22:19;;;;;;;36.80;16.30;;;-1.50;99.90;;;;;;7531449;19;20021;-71
2024/01/19 06:24:52;;;;;;;41.50;16.30;;;-1.40;99.90;;;;;;7536016;19;20015;-71
2024/01/19 06:27:25;;;;;;;40.70;17.70;;;-1.40;99.90;;;;;;7572296;19;20047;-73
2024/01/19 06:29:57;;;;;;;41.28;17.45;;;-1.30;99.90;;;;;;7564392;19;20022;-71
2024/01/19 06:32:30;;;;;;;38.22;17.02;;;-1.30;99.90;;;;;;7523040;19;20049;-72
2024/01/19 06:35:03;;;;;;;43.38;17.63;;;-1.30;99.90;;;;;;7538487;19;20015;-73
2024/01/19 06:37:38;;;;;;;42.15;19.10;;;-1.30;99.90;;;;;;7551611;19;20022;-72
2024/01/19 06:40:10;;;;;;;43.72;17.45;;;-1.30;99.90;;;;;;7575044;19;20015;-71
2024/01/19 06:42:46;;;;;;;39.80;17.63;;;-1.30;99.90;;;;;;7573138;19;20020;-71
2024/01/19 06:45:18;;;;;;;39.58;17.45;;;-1.30;99.90;;;;;;7573407;19;20750;-73
2024/01/19 06:47:51;;;;;;;35.08;16.00;;;-1.30;99.90;;;;;;7551472;19;20718;-73
2024/01/19 06:50:23;;;;;;;39.80;16.80;;;-1.30;99.90;;;;;;7561575;19;20021;-75
2024/01/19 06:52:55;;;;;;;41.05;18.13;;;-1.30;99.90;;;;;;7565098;19;20063;-75
2024/01/19 06:55:31;;;;;;;39.25;17.02;;;-1.30;99.90;;;;;;7546180;19;20022;-74
2024/01/19 06:58:04;;;;;;;42.35;18.63;;;-1.20;99.90;;;;;;7565612;19;20010;-75
2024/01/19 07:00:36;;;;;;;41.83;16.70;;;-1.30;99.90;;;;;;7579160;19;20019;-75
2024/01/19 07:03:08;;;;;;;41.22;17.13;;;-1.30;99.90;;;;;;7589454;19;21018;-75
2024/01/19 07:05:42;;;;;;;40.42;16.45;;;-1.30;99.90;;;;;;7574664;19;20019;-75
2024/01/19 07:08:15;;;;;;;44.80;17.67;;;-1.20;99.90;;;;;;7569405;19;20879;-75
2024/01/19 07:10:48;;;;;;;36.50;16.98;;;-1.20;99.90;;;;;;7584815;19;20010;-76
2024/01/19 07:13:20;;;;;;;40.55;17.50;;;-1.20;99.90;;;;;;7566974;19;20011;-75
2024/01/19 07:15:53;;;;;;;40.45;17.05;;;-1.20;99.90;;;;;;7551551;19;20790;-75
2024/01/19 07:18:26;;;;;;;38.67;16.40;;;-1.20;99.90;;;;;;7570355;19;20018;-75
2024/01/19 07:20:59;;;;;;;38.25;16.58;;;-1.20;99.90;;;;;;7545549;19;20021;-74
2024/01/19 07:23:32;;;;;;;33.67;16.63;;;-1.20;99.90;;;;;;7574334;19;20738;-75
2024/01/19 07:26:04;;;;;;;41.30;15.77;;;-1.20;99.90;;;;;;7564645;19;20050;-74
2024/01/19 07:28:36;;;;;;;40.28;16.30;;;-1.20;99.90;;;;;;7571679;19;20021;-75
2024/01/19 07:31:09;;;;;;;34.47;16.13;;;-1.20;99.90;;;;;;7573243;19;20094;-75
2024/01/19 07:33:41;;;;;;;38.35;17.35;;;-1.10;99.90;;;;;;7568365;19;20010;-74
2024/01/19 07:36:15;;;;;;;39.28;16.25;;;-1.20;99.90;;;;;;7583400;19;20018;-73
2024/01/19 07:38:48;;;;;;;38.38;16.80;;;-1.20;99.90;;;;;;7587994;19;20532;-73
2024/01/19 07:41:20;;;;;;;38.08;17.98;;;-1.10;99.90;;;;;;7589952;19;20024;-76
2024/01/19 07:43:54;;;;;;;42.67;18.67;;;-1.10;99.90;;;;;;7572384;19;20018;-74
2024/01/19 19:19:33;;;;;;;61.80;28.33;;;-4.10;99.90;;;;;;7610960;19;20370;-73
2024/01/19 19:22:06;;;;;;;70.80;30.92;;;-4.30;99.90;;;;;;7593608;19;20504;-73
2024/01/19 19:24:40;;;;;;;66.82;29.83;;;-4.30;99.90;;;;;;7594391;19;20014;-74
2024/01/19 19:27:12;;;;;;;66.35;31.45;;;-4.20;99.90;;;;;;7594643;19;20037;-73
2024/01/19 19:29:44;;;;;;;65.45;31.17;;;-4.20;99.90;;;;;;7600696;19;20113;-74
2024/01/19 19:32:17;;;;;;;69.30;29.70;;;-4.10;99.90;;;;;;7601785;19;20022;-74
2024/01/19 19:34:49;;;;;;;62.90;28.77;;;-4.00;99.90;;;;;;7595073;19;20097;-74
2024/01/19 19:37:23;;;;;;;68.00;30.70;;;-4.00;99.90;;;;;;7571690;19;20022;-74
2024/01/19 19:39:55;;;;;;;70.18;31.08;;;-4.00;99.90;;;;;;7594802;19;20792;-73
2024/01/19 19:42:28;;;;;;;64.55;30.25;;;-3.90;99.90;;;;;;7603928;19;20619;-74
2024/01/19 19:45:00;;;;;;;70.13;31.63;;;-3.90;99.90;;;;;;7592202;19;20258;-73
2024/01/19 19:47:36;;;;;;;67.88;30.88;;;-3.90;99.90;;;;;;7608155;19;20018;-73
2024/01/19 19:50:09;;;;;;;71.97;32.33;;;-3.90;99.90;;;;;;7602259;19;20492;-75
2024/01/19 19:52:42;;;;;;;;;;;-4.10;99.90;;;;;;7603562;19;20014;-72
2024/01/19 19:55:14;;;;;;;66.97;28.85;;;-4.10;99.90;;;;;;7595960;19;20573;-74
2024/01/19 19:57:47;;;;;;;85.28;38.63;;;-4.20;99.90;;;;;;7611668;19;20010;-74
2024/01/19 20:00:19;;;;;;;96.50;43.33;;;-4.10;99.90;;;;;;7586653;19;20018;-74
2024/01/19 20:02:53;;;;;;;103.17;47.00;;;-3.90;99.90;;;;;;7610804;19;20022;-74
2024/01/19 20:05:25;;;;;;;89.80;41.80;;;-4.00;99.90;;;;;;7598056;19;20103;-74
2024/01/19 20:07:58;;;;;;;80.97;38.00;;;-4.10;99.90;;;;;;7608263;19;20025;-73
2024/01/19 20:10:32;;;;;;;81.25;35.53;;;-4.20;99.90;;;;;;7598450;19;20645;-74
2024/01/19 20:13:04;;;;;;;70.85;33.95;;;-4.20;99.90;;;;;;7598498;19;20014;-75
2024/01/19 20:15:37;;;;;;;76.60;34.00;;;-4.20;99.90;;;;;;7609961;19;20757;-74
2024/01/19 20:18:09;;;;;;;72.60;32.83;;;-4.10;99.90;;;;;;7596853;19;20412;-74
2024/01/19 20:20:43;;;;;;;71.18;33.53;;;-4.10;99.90;;;;;;7593271;19;20026;-74
2024/01/19 20:23:16;;;;;;;77.35;35.08;;;-4.20;99.90;;;;;;7589454;19;20021;-74
2024/01/19 20:25:49;;;;;;;73.00;32.53;;;-4.30;99.90;;;;;;7589857;19;20019;-73
2024/01/19 20:28:22;;;;;;;73.73;34.03;;;-4.30;99.90;;;;;;7581994;19;21216;-74
2024/01/19 20:30:54;;;;;;;72.72;33.33;;;-4.30;99.90;;;;;;7563899;19;20010;-74
2024/01/19 20:33:27;;;;;;;79.85;35.50;;;-4.20;99.90;;;;;;7571680;19;20022;-73
2024/01/19 20:36:00;;;;;;;72.15;34.03;;;-4.10;99.90;;;;;;7573849;19;20908;-74
2024/01/19 20:38:32;;;;;;;76.50;36.78;;;-4.10;99.90;;;;;;7557312;19;20927;-71
2024/01/19 20:41:06;;;;;;;76.43;37.03;;;-4.00;99.90;;;;;;7558054;19;20065;-72
2024/01/19 20:43:38;;;;;;;73.10;34.00;;;-3.90;99.90;;;;;;7571784;19;20018;-72
2024/01/19 20:46:11;;;;;;;64.82;32.35;;;-3.90;99.90;;;;;;7576402;19;20086;-73
2024/01/19 20:48:47;;;;;;;72.30;33.15;;;-3.90;99.90;;;;;;7580800;19;20015;-72
2024/01/19 20:51:20;;;;;;;76.82;32.92;;;-4.10;99.90;;;;;;7557144;19;20484;-73
2024/01/19 20:53:53;;;;;;;69.55;29.55;;;-4.10;99.90;;;;;;7545915;19;20022;-72
2024/01/19 20:56:26;;;;;;;65.93;30.08;;;-4.10;99.90;;;;;;7551583;19;20938;-72
2024/01/19 20:58:58;;;;;;;65.22;29.52;;;-4.10;99.90;;;;;;7549569;19;20058;-72
2024/01/19 21:01:31;;;;;;;68.93;32.70;;;-4.20;99.90;;;;;;7546432;19;20025;-72
2024/01/19 21:04:04;;;;;;;69.35;28.77;;;-4.40;99.90;;;;;;7551917;19;20456;-72
2024/01/19 21:06:36;;;;;;;49.42;22.23;;;-4.50;99.90;;;;;;7579963;19;20105;-72
2024/01/19 21:09:09;;;;;;;50.60;24.65;;;-4.50;99.90;;;;;;7572326;19;20014;-72
2024/01/19 21:11:42;;;;;;;59.97;25.48;;;-4.60;99.90;;;;;;7565695;19;20689;-73
2024/01/19 21:14:15;;;;;;;;;;;-4.70;99.90;;;;;;7576515;19;20025;-73
2024/01/19 21:16:47;;;;;;;56.38;23.88;;;-4.70;99.90;;;;;;7586931;19;19918;-73
2024/01/19 21:19:19;;;;;;;57.03;25.13;;;-4.80;99.90;;;;;;7559372;19;20022;-74
2024/01/19 21:21:52;;;;;;;52.88;24.70;;;-4.80;99.90;;;;;;7557218;19;20019;-72
2024/01/19 21:24:24;;;;;;;58.28;23.73;;;-4.80;99.90;;;;;;7538654;19;20006;-72
2024/01/19 21:26:56;;;;;;;53.47;24.87;;;-4.70;99.90;;;;;;7564241;19;20018;-74
2024/01/19 21:29:30;;;;;;;53.22;23.48;;;-4.50;99.90;;;;;;7561299;19;20452;-72
2024/01/19 21:32:02;;;;;;;54.75;25.60;;;-4.50;99.90;;;;;;7568453;19;20018;-75
2024/01/19 21:34:35;;;;;;;60.83;27.13;;;-4.60;99.90;;;;;;7547093;19;20018;-74
2024/01/19 21:37:08;;;;;;;75.68;30.83;;;-4.60;99.90;;;;;;7558075;19;21002;-71
